Time;durP1;ratioP1;P1;durP2;ratioP2;P2;SDS_P1;SDS_P2;PMS_P1;PMS_P2;Temp;Humidity;BMP_temperature;BMP_pressure;BME280_temperature;BME280_humidity;BME280_pressure;Samples;Min_cycle;Max_cycle;Signal;HPM_P1;HPM_P2
2023/10/28 00:00:50;;;;;;;18.63;9.32;;;10.00;99.90;;;;;;5053250;28;20589;-86
2023/10/28 00:03:17;;;;;;;16.40;8.65;;;9.90;99.90;;;;;;5029621;28;20041;-86
2023/10/28 00:05:44;;;;;;;19.30;9.02;;;9.90;99.90;;;;;;5046683;28;20068;-86
2023/10/28 00:08:10;;;;;;;18.17;9.00;;;10.00;99.90;;;;;;5038035;28;20038;-86
2023/10/28 00:10:37;;;;;;;18.38;8.77;;;10.00;99.90;;;;;;5052202;28;20049;-87
2023/10/28 00:13:11;;;;;;;18.95;9.30;;;9.90;99.90;;;;;;5073344;28;20034;-86
2023/10/28 00:15:41;;;;;;;17.58;8.55;;;10.00;99.90;;;;;;5054182;28;20050;-87
2023/10/28 00:18:08;;;;;;;18.58;8.98;;;9.90;99.90;;;;;;5063221;28;20045;-86
2023/10/28 00:20:36;;;;;;;17.38;8.57;;;10.00;99.90;;;;;;5037254;28;20483;-86
2023/10/28 00:23:03;;;;;;;18.60;9.07;;;10.00;99.90;;;;;;5052733;28;20041;-87
2023/10/28 00:25:31;;;;;;;16.05;8.48;;;10.20;99.90;;;;;;5051281;28;20091;-86
2023/10/28 00:27:58;;;;;;;18.98;9.15;;;9.90;99.90;;;;;;5045261;28;20052;-86
2023/10/28 00:30:26;;;;;;;19.83;9.48;;;10.00;99.90;;;;;;5041717;28;20179;-86
2023/10/28 00:32:56;;;;;;;18.20;8.90;;;10.00;99.90;;;;;;5061356;28;20038;-86
2023/10/28 00:35:23;;;;;;;21.80;9.63;;;10.30;99.90;;;;;;5040988;28;20042;-86
2023/10/28 00:37:50;;;;;;;15.77;8.90;;;10.10;99.90;;;;;;5052387;28;20039;-87
2023/10/28 00:40:19;;;;;;;19.25;8.90;;;9.90;99.90;;;;;;5058729;28;20041;-86
2023/10/28 00:42:46;;;;;;;16.90;8.75;;;9.90;99.90;;;;;;5033072;28;20042;-86
2023/10/28 00:45:15;;;;;;;19.02;8.98;;;10.30;99.90;;;;;;5042141;28;20121;-87
2023/10/28 00:47:45;;;;;;;19.58;8.90;;;9.90;99.90;;;;;;5052590;28;20077;-86
2023/10/28 00:50:14;;;;;;;22.83;9.55;;;9.90;99.90;;;;;;5036670;28;20041;-87
2023/10/28 00:52:47;;;;;;;18.73;9.27;;;10.00;99.90;;;;;;5040126;28;20034;-86
2023/10/28 00:55:15;;;;;;;18.52;9.18;;;9.90;99.90;;;;;;5012848;28;20046;-86
2023/10/28 00:57:43;;;;;;;18.98;8.80;;;9.90;99.90;;;;;;5032641;28;20043;-86
2023/10/28 01:00:11;;;;;;;18.60;9.55;;;9.90;99.90;;;;;;5039235;28;20092;-87
2023/10/28 01:02:40;;;;;;;19.48;9.15;;;9.90;99.90;;;;;;5034026;28;20042;-87
2023/10/28 01:05:14;;;;;;;18.13;9.45;;;9.90;99.90;;;;;;5071458;28;20135;-86
2023/10/28 01:07:45;;;;;;;19.95;9.73;;;9.90;99.90;;;;;;5052786;28;20054;-87
2023/10/28 01:10:12;;;;;;;20.52;10.00;;;9.90;99.90;;;;;;5051007;28;20079;-87
2023/10/28 01:12:39;;;;;;;18.25;9.30;;;9.90;99.90;;;;;;5052390;28;20046;-87
2023/10/28 01:15:07;;;;;;;17.67;9.18;;;10.00;99.90;;;;;;5054399;28;20060;-87
2023/10/28 01:17:35;;;;;;;16.77;9.07;;;9.90;99.90;;;;;;5051879;28;20034;-87
2023/10/28 01:20:01;;;;;;;19.77;9.23;;;10.00;99.90;;;;;;5046587;28;20049;-87
2023/10/28 01:22:28;;;;;;;17.85;8.98;;;10.00;99.90;;;;;;5052052;28;20045;-86
2023/10/28 01:24:55;;;;;;;20.40;9.13;;;10.00;99.90;;;;;;5045631;28;20045;-87
2023/10/28 01:27:21;;;;;;;21.15;10.07;;;9.90;99.90;;;;;;5046838;28;20041;-87
2023/10/28 01:29:51;;;;;;;18.80;9.05;;;10.00;99.90;;;;;;5052137;28;20041;-87
2023/10/28 01:32:17;;;;;;;18.13;9.15;;;9.90;99.90;;;;;;5051274;28;20737;-87
2023/10/28 01:34:47;;;;;;;19.35;9.93;;;10.00;99.90;;;;;;5057642;28;20044;-87
2023/10/28 01:37:16;;;;;;;19.38;9.65;;;10.50;99.90;;;;;;5049529;28;20121;-87
2023/10/28 01:39:48;;;;;;;19.92;9.35;;;10.00;99.90;;;;;;5081367;28;20447;-87
2023/10/28 01:42:16;;;;;;;18.73;9.73;;;10.00;99.90;;;;;;5052121;28;20096;-87
2023/10/28 01:44:43;;;;;;;20.17;9.68;;;10.00;99.90;;;;;;5055284;28;20042;-87
2023/10/28 01:47:09;;;;;;;22.20;10.15;;;10.00;99.90;;;;;;5040946;28;20548;-87
2023/10/28 01:49:37;;;;;;;18.27;9.55;;;10.00;99.90;;;;;;5051033;28;20049;-87
2023/10/28 01:52:05;;;;;;;20.33;9.90;;;10.00;99.90;;;;;;5062055;28;20061;-87
2023/10/28 01:54:35;;;;;;;21.92;9.55;;;10.00;99.90;;;;;;5041891;28;20042;-87
2023/10/28 01:57:07;;;;;;;23.80;10.57;;;10.20;99.90;;;;;;5061418;28;20503;-87
2023/10/28 01:59:34;;;;;;;22.52;11.30;;;10.00;99.90;;;;;;5047113;28;20582;-87
2023/10/28 02:02:02;;;;;;;20.48;10.25;;;10.00;99.90;;;;;;5051014;28;20045;-87
2023/10/28 02:04:30;;;;;;;22.83;12.13;;;10.00;99.90;;;;;;5044975;28;20136;-86
2023/10/28 02:06:57;;;;;;;25.40;11.63;;;10.00;99.90;;;;;;5067220;28;20067;-86
2023/10/28 02:09:25;;;;;;;25.30;11.68;;;10.00;99.90;;;;;;5039823;28;20472;-87
2023/10/28 02:11:53;;;;;;;25.63;11.93;;;10.00;99.90;;;;;;5050912;28;20380;-87
2023/10/28 02:14:22;;;;;;;23.98;11.68;;;10.00;99.90;;;;;;5030047;28;20859;-87
2023/10/28 02:16:53;;;;;;;26.02;12.73;;;10.00;99.90;;;;;;5038585;28;20041;-87
2023/10/28 02:19:21;;;;;;;27.40;12.63;;;10.20;99.90;;;;;;5043661;28;20525;-87
2023/10/28 02:21:48;;;;;;;30.42;13.43;;;10.00;99.90;;;;;;5051036;28;20040;-87
2023/10/28 02:24:18;;;;;;;26.60;13.02;;;10.00;99.90;;;;;;5043329;28;20041;-87
2023/10/28 02:26:45;;;;;;;31.20;14.52;;;10.10;99.90;;;;;;5050459;28;20038;-87
2023/10/28 02:29:12;;;;;;;34.35;15.35;;;10.00;99.90;;;;;;5032631;28;20042;-86
2023/10/28 02:31:39;;;;;;;28.95;13.50;;;10.00;99.90;;;;;;5042423;28;20187;-87
2023/10/28 02:34:11;;;;;;;29.25;13.13;;;10.00;99.90;;;;;;5050094;28;20041;-87
2023/10/28 02:36:41;;;;;;;31.70;13.32;;;10.00;99.90;;;;;;5045885;28;20038;-87
2023/10/28 02:39:09;;;;;;;30.38;13.32;;;10.00;99.90;;;;;;5034623;28;20091;-86
2023/10/28 02:41:35;;;;;;;32.53;14.10;;;10.10;99.90;;;;;;5045296;28;20041;-87
2023/10/28 02:44:03;;;;;;;33.42;15.30;;;10.10;99.90;;;;;;5050236;28;20831;-86
2023/10/28 02:46:29;;;;;;;33.30;15.43;;;10.10;99.90;;;;;;5043499;28;20041;-86
2023/10/28 02:48:56;;;;;;;33.25;15.05;;;10.10;99.90;;;;;;5030293;28;20857;-86
2023/10/28 02:51:23;;;;;;;30.88;15.15;;;10.00;99.90;;;;;;5031765;28;20036;-86
2023/10/28 02:53:49;;;;;;;29.52;15.23;;;10.30;99.90;;;;;;5047513;28;20049;-87
2023/10/28 02:56:16;;;;;;;39.13;15.63;;;10.10;99.90;;;;;;5030167;28;20129;-86
2023/10/28 02:58:43;;;;;;;34.47;16.17;;;10.10;99.90;;;;;;5034704;28;20080;-86
2023/10/28 03:01:12;;;;;;;31.83;15.63;;;9.90;99.90;;;;;;5041505;28;20559;-86
2023/10/28 03:03:41;;;;;;;34.58;17.08;;;10.10;99.90;;;;;;5032599;28;20064;-86
2023/10/28 03:06:08;;;;;;;34.17;16.23;;;10.00;99.90;;;;;;5050275;28;20041;-86
2023/10/28 03:08:35;;;;;;;32.70;15.73;;;10.40;99.90;;;;;;5034609;28;20045;-85
2023/10/28 03:11:02;;;;;;;33.95;16.45;;;10.10;99.90;;;;;;5042300;28;20038;-86
2023/10/28 03:13:28;;;;;;;32.85;16.75;;;10.00;99.90;;;;;;5047126;28;20446;-86
2023/10/28 03:15:56;;;;;;;33.20;17.30;;;10.00;99.90;;;;;;5036145;28;20037;-86
2023/10/28 03:18:23;;;;;;;35.88;15.90;;;10.20;99.90;;;;;;5036633;28;20089;-87
2023/10/28 03:20:50;;;;;;;36.47;16.38;;;10.00;99.90;;;;;;5043973;28;20050;-87
2023/10/28 03:23:17;;;;;;;34.83;16.42;;;10.00;99.90;;;;;;5042295;28;20049;-86
2023/10/28 03:25:44;;;;;;;33.17;15.85;;;10.20;99.90;;;;;;5048377;28;20541;-87
2023/10/28 03:28:10;;;;;;;31.73;15.27;;;10.00;99.90;;;;;;5029907;28;20042;-86
2023/10/28 03:30:37;;;;;;;34.65;15.13;;;10.00;99.90;;;;;;5028103;28;20045;-86
2023/10/28 03:33:03;;;;;;;31.75;16.30;;;10.20;99.90;;;;;;5049326;28;20476;-86
2023/10/28 03:35:30;;;;;;;33.22;15.45;;;10.00;99.90;;;;;;5040366;28;20041;-86
2023/10/28 03:37:57;;;;;;;36.05;15.43;;;10.00;99.90;;;;;;5056351;28;20044;-87
2023/10/28 03:40:24;;;;;;;31.08;14.80;;;10.00;99.90;;;;;;5039408;28;20500;-86
2023/10/28 03:42:50;;;;;;;31.95;15.20;;;10.00;99.90;;;;;;5056580;28;20048;-87
2023/10/28 03:45:17;;;;;;;31.98;15.43;;;10.00;99.90;;;;;;5029232;28;20033;-86
2023/10/28 03:47:44;;;;;;;34.90;15.20;;;10.10;99.90;;;;;;5065763;28;20096;-87
2023/10/28 03:50:10;;;;;;;28.17;14.43;;;10.00;99.90;;;;;;5041686;28;20080;-87
2023/10/28 03:52:37;;;;;;;34.45;15.80;;;10.00;99.90;;;;;;5046492;28;20030;-86
2023/10/28 03:55:05;;;;;;;36.25;15.65;;;10.00;99.90;;;;;;5043610;28;20037;-86
2023/10/28 03:57:31;;;;;;;34.85;14.75;;;10.00;99.90;;;;;;5040802;28;20073;-86
2023/10/28 03:59:58;;;;;;;31.17;14.73;;;10.00;99.90;;;;;;5040530;28;20092;-86
2023/10/28 04:02:28;;;;;;;29.85;14.95;;;10.00;99.90;;;;;;5044341;28;20491;-87
2023/10/28 04:04:56;;;;;;;30.92;14.75;;;10.00;99.90;;;;;;5042401;28;20049;-86
2023/10/28 04:07:22;;;;;;;31.25;15.32;;;10.00;99.90;;;;;;5033039;28;20100;-86
2023/10/28 04:09:49;;;;;;;33.13;15.52;;;10.00;99.90;;;;;;5045098;28;20504;-86
2023/10/28 04:12:16;;;;;;;29.20;14.98;;;10.00;99.90;;;;;;5051932;28;20042;-86
2023/10/28 04:14:43;;;;;;;31.00;14.98;;;10.00;99.90;;;;;;5032682;28;20034;-86
2023/10/28 04:17:09;;;;;;;32.25;14.90;;;10.00;99.90;;;;;;5049370;28;20042;-87
2023/10/28 04:19:37;;;;;;;35.20;13.93;;;9.90;99.90;;;;;;5041293;28;20159;-86
2023/10/28 04:22:03;;;;;;;28.33;14.65;;;10.00;99.90;;;;;;5034656;28;20048;-87
2023/10/28 04:24:30;;;;;;;31.25;15.23;;;10.60;99.90;;;;;;5046507;28;20041;-86
2023/10/28 04:26:57;;;;;;;26.40;14.18;;;10.00;99.90;;;;;;5052829;28;20080;-87
2023/10/28 04:29:23;;;;;;;29.45;14.32;;;10.00;99.90;;;;;;5045604;28;20124;-86
2023/10/28 04:31:50;;;;;;;25.52;13.68;;;10.00;99.90;;;;;;5052409;28;20043;-86
2023/10/28 04:34:17;;;;;;;27.05;14.30;;;10.00;99.90;;;;;;5038511;28;20403;-87
2023/10/28 04:36:43;;;;;;;28.95;14.52;;;9.90;99.90;;;;;;5032500;28;20068;-86
2023/10/28 04:39:10;;;;;;;29.95;14.38;;;9.90;99.90;;;;;;5041177;28;20072;-86
2023/10/28 04:41:37;;;;;;;30.08;14.68;;;10.10;99.90;;;;;;5042925;28;20077;-86
2023/10/28 04:44:04;;;;;;;28.90;13.77;;;9.90;99.90;;;;;;5054355;28;20385;-87
2023/10/28 04:46:30;;;;;;;32.28;15.07;;;9.90;99.90;;;;;;5037303;28;20038;-87
2023/10/28 04:48:57;;;;;;;30.25;14.30;;;9.90;99.90;;;;;;5047768;28;20033;-87
2023/10/28 04:51:27;;;;;;;26.38;14.43;;;10.10;99.90;;;;;;5053249;28;20034;-86
2023/10/28 04:53:56;;;;;;;31.25;13.75;;;10.20;99.90;;;;;;5042362;28;20034;-86
2023/10/28 04:56:22;;;;;;;27.88;13.38;;;10.00;99.90;;;;;;5041073;28;20034;-86
2023/10/28 04:58:49;;;;;;;31.48;14.27;;;9.60;99.90;;;;;;5062647;28;20042;-87
2023/10/28 05:01:15;;;;;;;28.77;14.25;;;9.90;99.90;;;;;;5043959;28;20045;-86
2023/10/28 05:03:42;;;;;;;36.55;14.77;;;10.00;99.90;;;;;;5040937;28;20082;-87
2023/10/28 05:06:09;;;;;;;33.63;14.60;;;10.00;99.90;;;;;;5055044;28;20072;-86
2023/10/28 05:08:36;;;;;;;30.08;14.32;;;10.00;99.90;;;;;;5054847;28;20116;-87
2023/10/28 05:11:03;;;;;;;35.92;13.55;;;9.90;99.90;;;;;;5055053;28;20076;-86
2023/10/28 05:13:30;;;;;;;29.88;14.70;;;9.90;99.90;;;;;;5054725;28;20037;-87
2023/10/28 05:15:58;;;;;;;31.35;13.73;;;9.90;99.90;;;;;;5055002;28;20041;-86
2023/10/28 05:18:26;;;;;;;33.63;13.75;;;10.00;99.90;;;;;;5054729;28;20075;-86
2023/10/28 05:20:53;;;;;;;29.20;14.38;;;10.00;99.90;;;;;;5054737;28;20052;-87
2023/10/28 05:23:23;;;;;;;28.92;14.05;;;9.90;99.90;;;;;;5046999;28;20053;-87
2023/10/28 05:25:49;;;;;;;29.13;13.55;;;10.00;99.90;;;;;;5049792;28;20044;-86
2023/10/28 05:28:16;;;;;;;29.83;14.10;;;10.20;99.90;;;;;;5044790;28;20797;-86
2023/10/28 05:30:43;;;;;;;30.55;13.52;;;10.30;99.90;;;;;;5052163;28;20048;-87
2023/10/28 05:33:10;;;;;;;32.63;14.38;;;10.00;99.90;;;;;;5050412;28;20048;-86
2023/10/28 05:35:37;;;;;;;30.63;13.77;;;9.90;99.90;;;;;;5041818;28;20116;-86
2023/10/28 05:38:03;;;;;;;32.25;14.70;;;10.00;99.90;;;;;;5042114;28;20140;-87
2023/10/28 05:40:30;;;;;;;29.55;14.48;;;10.10;99.90;;;;;;5047720;28;20080;-86
2023/10/28 05:42:57;;;;;;;29.17;13.55;;;9.90;99.90;;;;;;5040675;28;20491;-86
2023/10/28 05:45:24;;;;;;;30.90;13.43;;;10.00;99.90;;;;;;5053976;28;20049;-87
2023/10/28 05:47:52;;;;;;;32.67;14.35;;;10.00;99.90;;;;;;5053855;28;20447;-87
2023/10/28 05:50:18;;;;;;;31.17;14.02;;;9.90;99.90;;;;;;5041628;28;20491;-86
2023/10/28 05:52:45;;;;;;;33.22;12.82;;;9.90;99.90;;;;;;5050623;28;20100;-87
2023/10/28 05:55:12;;;;;;;37.95;13.68;;;10.30;99.90;;;;;;5047858;28;20041;-87
2023/10/28 05:57:40;;;;;;;26.33;13.02;;;10.10;99.90;;;;;;5041483;28;20029;-86
2023/10/28 06:00:11;;;;;;;27.67;12.85;;;9.90;99.90;;;;;;5040635;28;20100;-87
2023/10/28 06:02:38;;;;;;;27.40;12.90;;;10.00;99.90;;;;;;5054218;28;20060;-87
2023/10/28 06:05:05;;;;;;;25.95;12.70;;;10.10;99.90;;;;;;5052472;28;20037;-87
2023/10/28 06:07:32;;;;;;;30.92;12.65;;;9.90;99.90;;;;;;5039903;28;20144;-86
2023/10/28 06:09:59;;;;;;;26.88;12.73;;;10.30;99.90;;;;;;5063356;28;20120;-86
2023/10/28 06:12:26;;;;;;;29.30;12.73;;;9.90;99.90;;;;;;5045127;28;20115;-86
2023/10/28 06:14:53;;;;;;;27.80;12.88;;;10.00;99.90;;;;;;5053753;28;20079;-85
2023/10/28 06:17:24;;;;;;;28.08;12.35;;;9.90;99.90;;;;;;5053708;28;20120;-87
2023/10/28 06:19:51;;;;;;;30.38;13.30;;;9.90;99.90;;;;;;5049636;28;20051;-87
2023/10/28 06:22:18;;;;;;;29.92;13.52;;;10.00;99.90;;;;;;5042366;28;20045;-87
2023/10/28 06:24:44;;;;;;;26.05;13.55;;;9.90;99.90;;;;;;5037057;28;20049;-86
2023/10/28 06:27:11;;;;;;;29.40;13.20;;;10.00;99.90;;;;;;5066272;28;20410;-86
2023/10/28 06:29:37;;;;;;;38.78;14.15;;;10.00;99.90;;;;;;5061930;28;20049;-85
2023/10/28 06:32:06;;;;;;;33.25;14.32;;;10.00;99.90;;;;;;5039218;28;20033;-86
2023/10/28 06:34:33;;;;;;;31.60;14.13;;;10.00;99.90;;;;;;5052694;28;20033;-86
2023/10/28 06:37:00;;;;;;;27.20;13.43;;;10.00;99.90;;;;;;5052387;28;20040;-86
2023/10/28 06:39:27;;;;;;;30.05;13.50;;;10.00;99.90;;;;;;5040704;28;20045;-86
2023/10/28 06:41:54;;;;;;;33.30;13.68;;;10.00;99.90;;;;;;5059887;28;20094;-85
2023/10/28 06:44:22;;;;;;;30.75;14.18;;;10.00;99.90;;;;;;5055426;28;20477;-86
2023/10/28 06:46:49;;;;;;;30.95;12.88;;;10.00;99.90;;;;;;5050412;28;20044;-86
2023/10/28 06:49:16;;;;;;;36.95;12.82;;;10.00;99.90;;;;;;5041122;28;20041;-86
2023/10/28 06:51:43;;;;;;;24.40;11.65;;;10.00;99.90;;;;;;5036278;28;20033;-86
2023/10/28 06:54:10;;;;;;;28.00;12.95;;;10.00;99.90;;;;;;5046991;28;20079;-87
2023/10/28 06:56:37;;;;;;;30.08;12.63;;;10.10;99.90;;;;;;5052315;28;20068;-86
2023/10/28 06:59:03;;;;;;;27.27;12.88;;;10.40;99.90;;;;;;5035146;28;20103;-88
2023/10/28 07:01:32;;;;;;;31.65;11.52;;;10.10;99.90;;;;;;5035606;28;20518;-86
2023/10/28 07:03:58;;;;;;;23.83;12.15;;;10.10;99.90;;;;;;5050849;28;20466;-87
2023/10/28 07:06:25;;;;;;;27.70;12.10;;;10.00;99.90;;;;;;5050092;28;20045;-88
2023/10/28 07:08:52;;;;;;;21.05;10.30;;;10.50;99.90;;;;;;5043179;28;20045;-85
2023/10/28 07:11:18;;;;;;;22.45;10.07;;;10.10;99.90;;;;;;5039556;28;20060;-86
2023/10/28 07:13:45;;;;;;;23.45;11.27;;;10.10;99.90;;;;;;5043016;28;20120;-86
2023/10/28 07:16:12;;;;;;;18.48;10.27;;;10.10;99.90;;;;;;5038369;28;20480;-86
2023/10/28 07:18:39;;;;;;;22.05;9.77;;;10.10;99.90;;;;;;5061900;28;20220;-86
2023/10/28 07:21:06;;;;;;;17.90;9.48;;;10.20;99.90;;;;;;5057008;28;20049;-86
2023/10/28 07:23:32;;;;;;;18.13;8.90;;;10.20;99.90;;;;;;5050797;28;20052;-86
2023/10/28 07:26:01;;;;;;;20.90;9.88;;;10.20;99.90;;;;;;5051436;28;20056;-86
2023/10/28 07:28:34;;;;;;;16.50;9.13;;;10.20;99.90;;;;;;5038203;28;20045;-86
2023/10/28 07:31:02;;;;;;;22.00;9.05;;;10.20;99.90;;;;;;5037583;28;20038;-86
2023/10/28 07:33:29;;;;;;;18.65;8.50;;;10.30;99.90;;;;;;5049222;28;20037;-86
2023/10/28 07:35:56;;;;;;;20.95;8.48;;;10.20;99.90;;;;;;5044211;28;20459;-86
2023/10/28 07:38:22;;;;;;;20.45;9.43;;;10.20;99.90;;;;;;5040808;28;20052;-86
2023/10/28 07:40:49;;;;;;;17.73;8.02;;;10.40;99.90;;;;;;5049715;28;20064;-85
2023/10/28 07:43:26;;;;;;;19.63;8.48;;;10.60;99.90;;;;;;5040382;28;20052;-87
2023/10/28 07:45:53;;;;;;;17.67;8.75;;;10.30;99.90;;;;;;5039399;28;20072;-87
2023/10/28 07:48:19;;;;;;;17.75;8.55;;;10.40;99.90;;;;;;5044009;28;20454;-86
2023/10/28 07:50:48;;;;;;;14.85;8.10;;;10.30;99.90;;;;;;5062825;28;20052;-87
2023/10/28 07:53:16;;;;;;;13.30;6.97;;;10.30;99.90;;;;;;5052279;28;20034;-84
2023/10/28 07:55:43;;;;;;;13.35;7.13;;;10.40;99.90;;;;;;5054259;28;20508;-89
2023/10/28 07:58:10;;;;;;;14.35;7.22;;;10.50;99.90;;;;;;5053019;28;20157;-84
2023/10/28 08:00:37;;;;;;;17.42;6.90;;;11.00;99.90;;;;;;5048805;28;20054;-85
2023/10/28 08:03:04;;;;;;;15.43;7.57;;;10.40;99.90;;;;;;5049151;28;20029;-84
2023/10/28 08:05:33;;;;;;;14.90;7.05;;;10.40;99.90;;;;;;5051792;28;20777;-85
2023/10/28 08:08:03;;;;;;;13.13;6.78;;;10.70;99.90;;;;;;5048921;28;20040;-84
2023/10/28 08:10:30;;;;;;;11.23;6.57;;;10.50;99.90;;;;;;5026525;28;20563;-85
2023/10/28 08:12:57;;;;;;;16.67;7.25;;;11.00;99.90;;;;;;5049638;28;20171;-84
2023/10/28 08:15:24;;;;;;;11.80;6.68;;;10.60;99.90;;;;;;5041924;28;20038;-85
2023/10/28 08:17:51;;;;;;;17.42;6.45;;;10.50;99.90;;;;;;5047711;28;20041;-85
2023/10/28 08:20:18;;;;;;;10.15;6.15;;;10.50;99.90;;;;;;5060620;28;20120;-85
2023/10/28 08:22:45;;;;;;;14.02;6.68;;;11.30;99.90;;;;;;5051692;28;20076;-85
2023/10/28 08:25:16;;;;;;;11.98;6.32;;;10.60;99.90;;;;;;5027582;28;20499;-85
2023/10/28 08:27:47;;;;;;;14.30;6.05;;;10.60;99.90;;;;;;5051913;28;20132;-85
2023/10/28 08:30:17;;;;;;;10.77;6.35;;;10.70;99.90;;;;;;5040257;28;20046;-85
2023/10/28 08:32:44;;;;;;;8.43;5.88;;;10.70;99.90;;;;;;5032365;28;20064;-86
2023/10/28 08:35:11;;;;;;;12.18;6.25;;;10.70;99.90;;;;;;5022155;28;20041;-85
2023/10/28 08:37:38;;;;;;;11.50;5.88;;;10.80;99.90;;;;;;5039508;28;20416;-85
2023/10/28 08:40:08;;;;;;;13.73;6.32;;;10.80;99.90;;;;;;5046645;28;20048;-85
2023/10/28 08:42:35;;;;;;;13.07;6.25;;;10.80;99.90;;;;;;5038467;28;20052;-85
2023/10/28 08:45:03;;;;;;;8.80;5.40;;;10.80;99.90;;;;;;5034062;28;20547;-85
2023/10/28 08:47:34;;;;;;;11.77;5.63;;;10.80;99.90;;;;;;5046364;28;20049;-85
2023/10/28 08:50:06;;;;;;;11.05;5.05;;;10.80;99.90;;;;;;5051576;28;20507;-85
2023/10/28 08:52:36;;;;;;;7.60;4.43;;;10.90;99.90;;;;;;5052237;28;20476;-86
2023/10/28 08:55:04;;;;;;;8.90;4.78;;;10.90;99.90;;;;;;5032010;28;20108;-85
2023/10/28 08:57:34;;;;;;;10.95;4.75;;;11.00;99.90;;;;;;5037512;28;20064;-85
2023/10/28 09:00:03;;;;;;;10.63;4.80;;;11.10;99.90;;;;;;5038351;28;20084;-85
2023/10/28 09:02:31;;;;;;;12.93;4.45;;;11.00;99.90;;;;;;5033069;28;20491;-85
2023/10/28 09:04:58;;;;;;;10.05;4.38;;;11.00;99.90;;;;;;5047848;28;20385;-85
2023/10/28 09:07:25;;;;;;;6.15;3.50;;;11.10;99.90;;;;;;5036645;28;20052;-85
2023/10/28 09:09:58;;;;;;;9.10;4.18;;;11.00;99.90;;;;;;5038522;28;20120;-85
2023/10/28 09:12:25;;;;;;;9.55;4.20;;;11.00;99.90;;;;;;5034485;28;20069;-85
2023/10/28 09:14:52;;;;;;;10.20;4.15;;;11.30;99.90;;;;;;5062495;28;20065;-85
2023/10/28 09:17:20;;;;;;;8.90;3.95;;;11.10;99.90;;;;;;5060689;28;20064;-85
2023/10/28 09:19:46;;;;;;;8.95;4.00;;;11.30;99.90;;;;;;5054301;28;20041;-86
2023/10/28 09:22:14;;;;;;;9.32;4.32;;;11.10;99.90;;;;;;5039947;28;20045;-84
2023/10/28 09:24:46;;;;;;;10.50;4.97;;;11.30;99.90;;;;;;5047753;28;20056;-85
2023/10/28 09:27:14;;;;;;;10.77;4.55;;;11.20;99.90;;;;;;5045151;28;20044;-85
2023/10/28 09:29:41;;;;;;;11.93;5.80;;;11.20;99.90;;;;;;5051007;28;20487;-86
2023/10/28 09:32:09;;;;;;;9.40;4.65;;;11.30;99.90;;;;;;5055632;28;20034;-85
2023/10/28 09:34:40;;;;;;;6.20;3.72;;;11.50;99.90;;;;;;5036682;28;20037;-85
2023/10/28 09:37:08;;;;;;;10.73;4.35;;;11.40;99.90;;;;;;5051409;28;20029;-85
2023/10/28 09:39:35;;;;;;;9.40;3.65;;;11.60;99.90;;;;;;5046206;28;20041;-85
2023/10/28 09:42:03;;;;;;;8.90;3.60;;;11.50;99.90;;;;;;5067389;28;20037;-86
2023/10/28 09:44:30;;;;;;;6.93;3.53;;;11.60;99.90;;;;;;5033891;28;20424;-85
2023/10/28 09:47:04;;;;;;;8.70;3.78;;;11.70;99.90;;;;;;5060166;28;20480;-86
2023/10/28 09:49:31;;;;;;;6.97;3.20;;;11.70;99.90;;;;;;5038069;28;20057;-85
2023/10/28 09:52:00;;;;;;;9.32;3.85;;;11.70;99.90;;;;;;5044045;28;20070;-86
2023/10/28 09:54:32;;;;;;;8.43;3.50;;;11.80;99.90;;;;;;5026001;28;20041;-85
2023/10/28 09:57:00;;;;;;;10.38;3.47;;;11.80;99.90;;;;;;5050774;28;20037;-85
2023/10/28 09:59:30;;;;;;;7.38;3.97;;;11.80;99.90;;;;;;5044127;28;20123;-86
2023/10/28 10:02:01;;;;;;;11.10;3.67;;;11.80;99.90;;;;;;5066744;28;20037;-85
2023/10/28 10:04:41;;;;;;;6.20;3.10;;;11.80;99.90;;;;;;5056841;28;20865;-86
2023/10/28 10:07:11;;;;;;;7.82;3.10;;;11.80;99.90;;;;;;5042880;28;20037;-85
2023/10/28 10:09:42;;;;;;;5.55;3.00;;;11.70;99.90;;;;;;5046857;28;20052;-85
2023/10/28 10:12:10;;;;;;;10.23;3.35;;;11.70;99.90;;;;;;5038989;28;20033;-87
2023/10/28 10:14:38;;;;;;;9.63;3.13;;;11.70;99.90;;;;;;5059158;28;20380;-87
2023/10/28 10:17:27;;;;;;;9.05;3.40;;;11.70;99.90;;;;;;5066998;28;20045;-87
2023/10/28 10:19:59;;;;;;;6.22;3.08;;;11.70;99.90;;;;;;4943244;29;20579;-87
2023/10/28 10:22:33;;;;;;;7.28;3.17;;;11.70;99.90;;;;;;4956275;29;20059;-87
2023/10/28 10:25:00;;;;;;;9.75;3.45;;;11.70;99.90;;;;;;4982735;29;20065;-87
2023/10/28 10:27:39;;;;;;;6.75;3.22;;;11.70;99.90;;;;;;4955481;29;20133;-87
2023/10/28 10:30:08;;;;;;;9.75;3.25;;;11.70;99.90;;;;;;4952600;29;20094;-87
2023/10/28 10:32:45;;;;;;;7.43;3.75;;;11.70;99.90;;;;;;4970619;29;20065;-87
2023/10/28 10:35:13;;;;;;;8.07;3.25;;;11.80;99.90;;;;;;4955800;29;20047;-87
2023/10/28 10:37:40;;;;;;;10.88;3.80;;;11.80;99.90;;;;;;4955303;29;20130;-87
2023/10/28 10:40:09;;;;;;;6.00;3.15;;;11.70;99.90;;;;;;4955327;29;20142;-87
2023/10/28 10:42:36;;;;;;;8.85;3.72;;;11.70;99.90;;;;;;4954964;29;20081;-89
2023/10/28 10:45:04;;;;;;;7.00;3.33;;;11.80;99.90;;;;;;4955215;29;20081;-88
2023/10/28 10:47:31;;;;;;;6.47;3.40;;;11.70;99.90;;;;;;4955741;29;20391;-88
2023/10/28 10:49:59;;;;;;;8.15;3.35;;;11.70;99.90;;;;;;4954037;29;20048;-87
2023/10/28 10:52:26;;;;;;;8.63;3.22;;;11.70;99.90;;;;;;4955063;29;20046;-87
2023/10/28 10:54:53;;;;;;;7.80;3.92;;;12.20;99.90;;;;;;4951097;29;20040;-88
2023/10/28 10:57:20;;;;;;;8.10;3.60;;;11.70;99.90;;;;;;5033405;28;20068;-87
2023/10/28 10:59:47;;;;;;;9.95;4.07;;;11.70;99.90;;;;;;5044233;28;20053;-87
2023/10/28 11:02:14;;;;;;;9.15;3.63;;;11.80;99.90;;;;;;5035217;28;20153;-87
2023/10/28 11:04:41;;;;;;;6.85;3.70;;;11.80;99.90;;;;;;5044315;28;20121;-88
2023/10/28 11:07:07;;;;;;;11.98;4.10;;;11.80;99.90;;;;;;5042428;28;20053;-87
2023/10/28 11:09:35;;;;;;;6.50;3.58;;;11.80;99.90;;;;;;5032282;28;20492;-87
2023/10/28 11:12:01;;;;;;;8.57;3.47;;;11.90;99.90;;;;;;5063793;28;20033;-87
2023/10/28 11:14:29;;;;;;;8.35;3.53;;;11.80;99.90;;;;;;5057506;28;20412;-87
2023/10/28 11:16:56;;;;;;;7.78;3.65;;;12.00;99.90;;;;;;5038301;28;20073;-88
2023/10/28 11:19:24;;;;;;;8.27;3.30;;;11.80;99.90;;;;;;5041005;28;20042;-88
2023/10/28 11:21:51;;;;;;;17.75;9.25;;;11.80;99.90;;;;;;5063840;28;20100;-87
2023/10/28 11:24:17;;;;;;;17.85;7.78;;;11.80;99.90;;;;;;5027976;28;20042;-88
2023/10/28 11:26:47;;;;;;;14.55;6.07;;;12.50;99.90;;;;;;5037903;28;20095;-88
2023/10/28 11:29:17;;;;;;;7.93;3.72;;;11.90;99.90;;;;;;5046883;28;20045;-88
2023/10/28 11:31:45;;;;;;;7.40;3.85;;;12.00;99.90;;;;;;5039843;28;20133;-88
2023/10/28 11:34:13;;;;;;;13.60;4.18;;;11.90;99.90;;;;;;5043547;28;20037;-86
2023/10/28 11:36:40;;;;;;;8.93;4.22;;;11.90;99.90;;;;;;5042105;28;20048;-88
2023/10/28 11:39:09;;;;;;;8.45;3.92;;;11.90;99.90;;;;;;5048525;28;20821;-88
2023/10/28 11:41:36;;;;;;;10.15;4.45;;;11.90;99.90;;;;;;5049187;28;20094;-88
2023/10/28 11:44:03;;;;;;;9.57;4.75;;;12.10;99.90;;;;;;5069498;28;20049;-88
2023/10/28 11:46:31;;;;;;;11.23;4.25;;;12.00;99.90;;;;;;5052579;28;20124;-88
2023/10/28 11:49:00;;;;;;;10.00;4.82;;;11.90;99.90;;;;;;5040828;28;20034;-88
2023/10/28 11:51:28;;;;;;;8.15;4.55;;;11.90;99.90;;;;;;5044418;28;20480;-88
2023/10/28 11:53:54;;;;;;;8.80;4.75;;;12.00;99.90;;;;;;5053246;28;20065;-88
2023/10/28 11:56:21;;;;;;;10.10;5.35;;;12.00;99.90;;;;;;5027553;28;20042;-87
2023/10/28 11:58:50;;;;;;;7.05;4.50;;;12.00;99.90;;;;;;5053598;28;20562;-88
2023/10/28 12:01:17;;;;;;;10.32;4.78;;;12.10;99.90;;;;;;5037557;28;20053;-88
2023/10/28 12:03:45;;;;;;;8.77;4.70;;;12.00;99.90;;;;;;5030400;28;20055;-88
2023/10/28 12:06:12;;;;;;;10.25;5.10;;;12.40;99.90;;;;;;5045911;28;20403;-88
2023/10/28 12:08:39;;;;;;;7.78;4.57;;;12.10;99.90;;;;;;5030871;28;20041;-88
2023/10/28 12:11:05;;;;;;;10.10;4.68;;;12.60;99.90;;;;;;5027754;28;20033;-88
2023/10/28 12:13:33;;;;;;;7.15;4.22;;;12.20;99.90;;;;;;5026485;28;20045;-89
2023/10/28 12:16:00;;;;;;;10.93;4.60;;;12.20;99.90;;;;;;5034447;28;20045;-88
2023/10/28 12:18:26;;;;;;;9.20;4.72;;;12.30;99.90;;;;;;5044638;28;20096;-88
2023/10/28 12:20:53;;;;;;;8.88;4.50;;;12.30;99.90;;;;;;5027251;28;20092;-88
2023/10/28 12:23:19;;;;;;;11.43;4.40;;;12.30;99.90;;;;;;5032892;28;20077;-88
2023/10/28 12:25:46;;;;;;;6.32;4.43;;;12.30;99.90;;;;;;5020776;28;20072;-88
2023/10/28 12:28:13;;;;;;;8.18;3.95;;;12.30;99.90;;;;;;5036952;28;20029;-88
2023/10/28 12:30:40;;;;;;;8.88;4.13;;;12.40;99.90;;;;;;5025113;28;20072;-88
2023/10/28 12:33:09;;;;;;;10.77;4.95;;;12.40;99.90;;;;;;5026696;28;20117;-88
2023/10/28 12:35:36;;;;;;;8.70;4.53;;;12.40;99.90;;;;;;5028591;28;20037;-88
2023/10/28 12:38:03;;;;;;;8.02;4.30;;;12.40;99.90;;;;;;5042427;28;20120;-88